createdAt,value
2023-03-23T15:58:31.183Z,16.43
2023-03-23T16:00:24.404Z,16.39
2023-03-23T16:02:22.761Z,16.35
2023-03-23T16:04:19.015Z,16.29
2023-03-23T16:06:12.636Z,16.23
2023-03-23T16:08:16.913Z,16.20
2023-03-23T16:10:15.769Z,16.17
2023-03-23T16:12:11.514Z,16.15
2023-03-23T16:14:02.852Z,16.11
2023-03-23T16:15:54.538Z,16.08
2023-03-23T16:17:46.836Z,16.05
2023-03-23T16:19:38.326Z,16.02
2023-03-23T16:21:29.552Z,15.98
2023-03-23T16:23:21.213Z,15.94
2023-03-23T16:25:16.049Z,15.91
2023-03-23T16:27:09.921Z,15.87
2023-03-23T16:29:12.961Z,15.82
2023-03-23T16:31:12.115Z,15.79
2023-03-23T16:33:03.918Z,15.76
2023-03-23T16:34:55.398Z,15.72
2023-03-23T16:36:46.634Z,15.69
2023-03-23T16:38:49.664Z,15.66
2023-03-23T16:40:46.626Z,15.62
2023-03-23T16:42:38.207Z,15.58
2023-03-23T16:44:29.979Z,15.56
2023-03-23T16:46:21.338Z,15.51
2023-03-23T16:48:14.244Z,15.50
2023-03-23T16:50:08.604Z,15.48
2023-03-23T16:52:00.215Z,15.46
2023-03-23T16:53:51.532Z,15.44
2023-03-23T16:55:47.859Z,15.43
2023-03-23T16:57:41.387Z,15.41
2023-03-23T16:59:33.273Z,15.39
2023-03-23T17:01:24.628Z,15.37
2023-03-23T17:03:20.377Z,15.37
2023-03-23T17:05:12.694Z,15.37
2023-03-23T17:07:04.325Z,15.37
2023-03-23T17:08:55.634Z,15.33
2023-03-23T17:10:47.507Z,15.32
2023-03-23T17:12:39.695Z,15.29
2023-03-23T17:14:30.799Z,15.27
2023-03-23T17:16:22.449Z,15.23
2023-03-23T17:18:14.729Z,15.18
2023-03-23T17:20:07.658Z,15.18
2023-03-23T17:21:59.397Z,15.15
2023-03-23T17:23:51.681Z,15.13
2023-03-23T17:25:45.626Z,15.10
2023-03-23T17:27:37.819Z,15.06
2023-03-23T17:29:29.418Z,15.04
2023-03-23T17:31:21.524Z,15.02
2023-03-23T17:33:13.264Z,14.99
2023-03-23T17:35:06.659Z,14.95
2023-03-23T17:36:57.862Z,14.93
2023-03-23T17:38:49.143Z,14.90
2023-03-23T17:40:40.968Z,14.87
2023-03-23T17:42:32.659Z,14.84
2023-03-23T17:44:24.461Z,14.81
2023-03-23T17:46:16.057Z,14.78
2023-03-23T17:48:08.048Z,14.76
2023-03-23T17:49:59.691Z,14.73
2023-03-23T17:51:51.189Z,14.70
2023-03-23T17:53:42.329Z,14.68
2023-03-23T17:55:33.771Z,14.66
2023-03-23T17:57:25.570Z,14.64
2023-03-23T17:59:17.151Z,14.62
2023-03-23T18:01:08.927Z,14.60
2023-03-23T18:03:00.839Z,14.59
2023-03-23T18:04:52.664Z,14.58
2023-03-23T18:06:45.091Z,14.57
2023-03-23T18:08:37.308Z,14.56
2023-03-23T18:10:28.880Z,14.55
2023-03-23T18:12:20.455Z,14.52
2023-03-23T18:14:11.771Z,14.52
2023-03-23T18:16:05.298Z,14.50
2023-03-23T18:17:57.396Z,14.48
2023-03-23T18:19:48.933Z,14.48
2023-03-23T18:21:40.725Z,14.47
2023-03-23T18:23:39.054Z,14.47
2023-03-23T18:25:36.657Z,14.45
2023-03-23T18:27:28.163Z,14.45
2023-03-23T18:29:19.891Z,14.45
2023-03-23T18:31:15.219Z,14.46
2023-03-23T18:33:06.914Z,14.46
2023-03-23T18:34:58.733Z,14.46
2023-03-23T18:36:50.648Z,14.46
2023-03-23T18:38:42.308Z,14.49
2023-03-23T18:40:34.287Z,14.50
2023-03-23T18:42:26.895Z,14.50
2023-03-23T18:44:18.349Z,14.51
2023-03-23T18:46:09.745Z,14.53
2023-03-23T18:48:01.383Z,14.53
2023-03-23T18:49:55.313Z,14.53
2023-03-23T18:51:46.736Z,14.52
2023-03-23T18:53:37.835Z,14.50
2023-03-23T18:55:29.033Z,14.50
2023-03-23T18:57:22.723Z,14.51
2023-03-23T18:59:14.008Z,14.51
2023-03-23T19:01:07.566Z,14.51
2023-03-23T19:02:58.989Z,14.51
2023-03-23T19:04:51.095Z,14.50
2023-03-23T19:06:42.566Z,14.50
2023-03-23T19:08:34.944Z,14.50
2023-03-23T19:10:27.301Z,14.49
2023-03-23T19:12:18.976Z,14.51
2023-03-23T19:14:10.456Z,14.52
2023-03-23T19:16:02.131Z,14.52
2023-03-23T19:17:56.142Z,14.53
2023-03-23T19:19:47.439Z,14.52
2023-03-23T19:21:47.005Z,14.50
2023-03-23T19:23:38.716Z,14.51
2023-03-23T19:25:29.998Z,14.52
2023-03-23T19:27:21.420Z,14.51
2023-03-23T19:31:15.571Z,14.48
2023-03-23T19:33:07.009Z,14.46
2023-03-23T19:34:59.245Z,14.45
2023-03-23T19:36:56.200Z,14.42
2023-03-23T19:38:54.938Z,14.41
2023-03-23T19:40:56.000Z,14.39
2023-03-23T19:42:48.172Z,14.37
2023-03-23T19:44:41.207Z,14.35
2023-03-23T19:46:32.929Z,14.35
2023-03-23T19:48:24.548Z,14.33
2023-03-23T19:50:16.658Z,14.32
2023-03-23T19:52:12.713Z,14.31
2023-03-23T19:54:07.733Z,14.29
2023-03-23T19:55:59.543Z,14.29
2023-03-23T19:57:51.348Z,14.27
2023-03-23T19:59:44.291Z,14.26
2023-03-23T20:01:36.294Z,14.25
2023-03-23T20:03:28.467Z,14.24
2023-03-23T20:07:07.802Z,14.22
2023-03-23T20:09:00.356Z,14.18
2023-03-23T20:10:53.297Z,14.16
2023-03-23T20:12:44.864Z,14.14
2023-03-23T20:14:37.534Z,14.11
2023-03-23T20:16:29.400Z,14.09
2023-03-23T20:18:21.620Z,14.07
2023-03-23T20:20:15.028Z,14.04
2023-03-23T20:22:06.752Z,14.02
2023-03-23T20:23:58.909Z,13.99
2023-03-23T20:25:51.146Z,13.96
2023-03-23T20:27:44.751Z,13.92
2023-03-23T20:29:36.778Z,13.90
2023-03-23T20:31:30.969Z,13.87
2023-03-23T20:33:22.576Z,13.85
2023-03-23T20:35:14.837Z,13.83
2023-03-23T20:37:07.556Z,13.81
2023-03-23T20:38:59.251Z,13.78
2023-03-23T20:40:51.394Z,13.74
2023-03-23T20:42:44.166Z,13.71
2023-03-23T20:44:36.215Z,13.66
2023-03-23T20:46:28.704Z,13.61
2023-03-23T20:48:20.612Z,13.56
2023-03-23T20:50:12.570Z,13.52
2023-03-23T20:52:06.252Z,13.47
2023-03-23T20:53:58.028Z,13.42
2023-03-23T20:55:51.509Z,13.36
2023-03-23T20:57:43.575Z,13.31
2023-03-23T20:59:35.551Z,13.25
2023-03-23T21:01:27.063Z,13.18
2023-03-23T21:03:19.110Z,13.12
2023-03-23T21:05:11.028Z,13.07
2023-03-23T21:07:02.698Z,13.01
2023-03-23T21:08:56.065Z,12.96
2023-03-23T21:10:48.172Z,12.95
2023-03-23T21:12:39.824Z,12.91
2023-03-23T21:14:32.899Z,12.88
2023-03-23T21:16:24.592Z,12.84
2023-03-23T21:18:16.525Z,12.80
2023-03-23T21:20:11.171Z,12.77
2023-03-23T21:22:02.639Z,12.73
2023-03-23T21:33:23.353Z,12.52
2023-03-23T21:35:15.130Z,12.45
2023-03-23T21:37:06.616Z,12.41
2023-03-23T21:38:58.884Z,12.36
2023-03-23T21:40:50.186Z,12.29
2023-03-23T21:42:44.369Z,12.24
2023-03-23T21:44:36.861Z,12.20
2023-03-23T21:46:28.126Z,12.17
2023-03-23T21:48:22.064Z,12.14
2023-03-23T21:50:14.203Z,12.07
2023-03-23T21:52:05.797Z,12.07
2023-03-23T21:53:57.984Z,12.03
2023-03-23T21:55:54.698Z,12.00
2023-03-23T21:57:47.187Z,11.96
2023-03-23T21:59:38.883Z,11.92
2023-03-23T22:01:30.781Z,11.88
2023-03-23T22:03:24.072Z,11.84
2023-03-23T22:05:15.996Z,11.80
2023-03-23T22:07:08.099Z,11.78
2023-03-23T22:09:01.216Z,11.76
2023-03-23T22:11:00.468Z,11.72
2023-03-23T22:12:55.479Z,11.68
2023-03-23T22:14:47.304Z,11.65
2023-03-23T22:16:38.657Z,11.63
2023-03-23T22:18:30.771Z,11.61
2023-03-23T22:20:22.585Z,11.56
2023-03-23T22:22:14.244Z,11.53
2023-03-23T22:24:06.128Z,11.50
2023-03-23T22:25:58.089Z,11.45
2023-03-23T22:27:49.725Z,11.41
2023-03-23T22:29:41.694Z,11.38
2023-03-23T22:31:34.811Z,11.35
2023-03-23T22:33:26.293Z,11.32
2023-03-23T22:35:18.044Z,11.30
2023-03-23T22:37:09.255Z,11.27
2023-03-23T22:39:01.720Z,11.25
2023-03-23T22:41:01.194Z,11.22
2023-03-23T22:42:52.683Z,11.19
2023-03-23T22:44:44.241Z,11.16
2023-03-23T22:46:35.928Z,11.13
2023-03-23T22:48:28.340Z,11.10
2023-03-23T22:50:21.547Z,11.07
2023-03-23T22:52:12.910Z,11.03
2023-03-23T22:54:05.431Z,11.01
2023-03-23T22:55:57.798Z,10.99
2023-03-23T22:57:49.703Z,10.97
2023-03-23T22:59:40.930Z,10.97
2023-03-23T23:01:33.252Z,10.94
2023-03-23T23:03:24.907Z,10.92
2023-03-23T23:05:16.473Z,10.89
2023-03-23T23:07:14.125Z,10.88
2023-03-23T23:09:06.328Z,10.87
2023-03-23T23:10:59.671Z,10.87
2023-03-23T23:12:54.142Z,10.86
2023-03-23T23:14:45.902Z,10.87
2023-03-23T23:16:37.310Z,10.88
2023-03-23T23:18:30.497Z,10.89
2023-03-23T23:20:24.629Z,10.91
2023-03-23T23:22:19.218Z,10.95
2023-03-23T23:24:11.133Z,10.99
2023-03-23T23:26:03.169Z,11.02
2023-03-23T23:27:58.427Z,11.04
2023-03-23T23:29:49.914Z,11.08
2023-03-23T23:31:41.243Z,11.11
2023-03-23T23:33:32.705Z,11.12
2023-03-23T23:35:25.007Z,11.17
2023-03-23T23:37:16.634Z,11.20
2023-03-23T23:39:07.855Z,11.23
2023-03-23T23:40:59.083Z,11.25
2023-03-23T23:42:51.757Z,11.28
2023-03-23T23:44:45.330Z,11.30
2023-03-23T23:46:36.955Z,11.32
2023-03-23T23:48:28.694Z,11.33
2023-03-23T23:50:20.702Z,11.33
2023-03-23T23:52:12.248Z,11.33
2023-03-23T23:54:04.817Z,11.32
2023-03-23T23:55:56.197Z,11.31
2023-03-23T23:57:48.807Z,11.30
2023-03-23T23:59:41.082Z,11.30
